createdAt,value
2023-12-03T06:30:31.186Z,93.01
2023-12-03T06:33:23.398Z,93.46
2023-12-03T06:37:22.922Z,93.64
2023-12-03T06:41:03.523Z,94.06
2023-12-03T06:44:31.070Z,94.21
2023-12-03T06:47:06.926Z,94.82
2023-12-03T06:49:35.112Z,94.99
2023-12-03T06:52:03.537Z,94.57
2023-12-03T06:54:31.585Z,94.06
2023-12-03T06:56:59.548Z,93.26
2023-12-03T06:59:27.557Z,93.27
2023-12-03T07:02:24.140Z,92.95
2023-12-03T07:04:52.377Z,92.53
2023-12-03T07:09:39.756Z,92.45
2023-12-03T07:13:20.940Z,92.41
2023-12-03T07:17:02.278Z,92.41
2023-12-03T07:21:02.453Z,93.02
2023-12-03T07:23:29.908Z,93.63
2023-12-03T07:25:59.194Z,93.75
2023-12-03T07:28:26.412Z,93.42
2023-12-03T07:30:53.384Z,92.99
2023-12-03T07:33:20.695Z,92.49
2023-12-03T07:35:48.596Z,91.76
2023-12-03T07:38:15.583Z,91.44
2023-12-03T07:40:44.581Z,91.76
2023-12-03T07:43:14.094Z,91.49
2023-12-03T07:45:41.158Z,91.54
2023-12-03T07:48:10.136Z,91.68
2023-12-03T07:50:40.692Z,91.59
2023-12-03T07:53:09.151Z,91.45
2023-12-03T07:55:36.111Z,91.26
2023-12-03T07:58:39.701Z,91.37
2023-12-03T08:02:21.177Z,91.41
2023-12-03T08:06:17.951Z,91.66
2023-12-03T08:09:38.760Z,91.84
2023-12-03T08:13:31.985Z,90.67
2023-12-03T08:16:05.607Z,91.01
2023-12-03T08:18:34.914Z,90.75
2023-12-03T08:21:05.562Z,90.58
2023-12-03T08:23:37.911Z,89.67
2023-12-03T08:26:12.025Z,88.55
2023-12-03T08:29:34.927Z,88.49
2023-12-03T08:43:55.069Z,85.90
2023-12-03T08:47:02.382Z,85.58
2023-12-03T08:50:36.536Z,85.62
2023-12-03T08:54:00.799Z,85.40
2023-12-03T09:39:11.777Z,87.40
2023-12-03T09:47:18.310Z,89.62
2023-12-03T10:02:21.861Z,89.15
2023-12-03T10:11:20.205Z,90.12
2023-12-03T10:23:49.260Z,91.84
2023-12-03T10:31:31.097Z,93.64
2023-12-03T10:38:25.218Z,92.94
2023-12-03T10:43:32.619Z,91.96
2023-12-03T10:50:12.144Z,92.08
2023-12-03T10:58:09.229Z,90.88
2023-12-03T11:01:58.456Z,91.57
2023-12-03T11:22:32.837Z,93.21
2023-12-03T11:29:46.085Z,93.59
2023-12-03T11:38:26.485Z,93.59
2023-12-03T11:42:36.279Z,93.63
2023-12-03T11:50:41.044Z,91.95
2023-12-03T11:57:14.345Z,92.17
2023-12-03T12:12:17.972Z,91.13
2023-12-03T12:16:33.098Z,91.06
2023-12-03T12:20:45.283Z,91.78
2023-12-03T12:32:32.438Z,92.04
2023-12-03T12:36:42.556Z,91.96
2023-12-03T12:40:59.402Z,91.76
2023-12-03T12:44:46.903Z,91.15
2023-12-03T12:49:05.784Z,91.73
2023-12-03T12:58:17.504Z,92.73
2023-12-03T13:44:41.061Z,91.63
2023-12-03T13:48:23.998Z,91.74
2023-12-03T13:50:54.842Z,91.78
2023-12-03T13:53:29.878Z,91.81
2023-12-03T14:00:37.088Z,89.33
2023-12-03T14:09:06.818Z,91.28
2023-12-03T14:23:04.426Z,90.74
2023-12-03T14:27:47.271Z,89.67
2023-12-03T15:42:00.729Z,89.48
2023-12-03T16:05:33.874Z,89.00
2023-12-03T16:09:20.915Z,88.88
2023-12-03T16:25:08.748Z,89.63
2023-12-03T16:41:30.121Z,88.96
2023-12-03T16:49:37.944Z,89.28
2023-12-03T16:57:34.244Z,89.84
2023-12-03T17:01:20.132Z,89.53
2023-12-03T17:10:44.288Z,90.56
2023-12-03T17:14:12.372Z,90.17
2023-12-03T17:17:01.343Z,89.94
2023-12-03T17:22:57.566Z,89.68
2023-12-03T17:25:27.111Z,89.57
2023-12-03T17:28:37.538Z,89.60
2023-12-03T17:31:46.358Z,89.27
2023-12-03T17:35:02.392Z,89.44
2023-12-03T17:42:58.197Z,89.49
2023-12-03T17:46:17.802Z,88.38
2023-12-03T17:49:34.692Z,88.92
2023-12-03T17:57:05.308Z,88.70
2023-12-03T18:11:45.330Z,88.11
2023-12-03T18:15:47.363Z,88.64
2023-12-03T18:19:57.365Z,87.85
2023-12-03T18:24:16.818Z,87.23
2023-12-03T18:34:46.052Z,87.87
2023-12-03T18:37:57.396Z,87.05
2023-12-03T18:43:26.027Z,87.68
2023-12-03T18:46:20.146Z,86.81
2023-12-03T18:48:48.960Z,86.73
2023-12-03T18:51:17.492Z,86.73
2023-12-03T18:53:45.695Z,86.68
2023-12-03T18:56:13.714Z,86.94
2023-12-03T18:58:53.712Z,86.84
2023-12-03T19:01:41.996Z,86.36
2023-12-03T19:04:10.092Z,86.46
2023-12-03T19:06:38.380Z,86.11
2023-12-03T19:09:08.057Z,86.29
2023-12-03T19:11:36.091Z,86.18
2023-12-03T19:14:04.470Z,86.33
2023-12-03T19:16:32.668Z,86.26
2023-12-03T19:19:03.141Z,86.42
2023-12-03T19:21:31.104Z,86.40
2023-12-03T19:24:01.413Z,86.40
2023-12-03T19:26:29.837Z,86.63
2023-12-03T19:28:59.402Z,86.70
2023-12-03T19:31:27.433Z,86.79
2023-12-03T19:33:56.106Z,87.01
2023-12-03T19:36:24.906Z,86.68
2023-12-03T19:38:53.460Z,86.64
2023-12-03T19:41:21.398Z,86.32
2023-12-03T19:43:49.235Z,86.00
2023-12-03T19:46:17.145Z,86.11
2023-12-03T19:48:46.274Z,86.50
2023-12-03T19:51:14.302Z,86.48
2023-12-03T19:53:47.411Z,86.15
2023-12-03T19:56:15.362Z,85.78
2023-12-03T19:58:44.007Z,85.96
2023-12-03T20:01:32.003Z,86.11
2023-12-03T20:04:00.520Z,85.91
2023-12-03T20:06:28.604Z,86.09
2023-12-03T20:08:56.914Z,85.95
2023-12-03T20:11:24.929Z,85.92
2023-12-03T20:13:52.995Z,85.80
2023-12-03T20:16:21.128Z,85.99
2023-12-03T20:18:49.646Z,86.04
2023-12-03T20:21:19.599Z,86.24
2023-12-03T20:23:50.489Z,86.31
2023-12-03T20:26:22.201Z,86.32
2023-12-03T20:28:50.716Z,86.78
2023-12-03T20:31:27.308Z,87.10
2023-12-03T20:33:55.705Z,86.62
2023-12-03T20:36:25.889Z,86.68
2023-12-03T20:38:56.156Z,86.51
2023-12-03T20:41:24.995Z,87.17
2023-12-03T20:43:54.007Z,87.56
2023-12-03T20:46:22.931Z,87.17
2023-12-03T20:48:51.085Z,87.65
2023-12-03T20:51:19.426Z,88.40
2023-12-03T20:53:47.450Z,88.26
2023-12-03T20:56:15.834Z,87.59
2023-12-03T20:58:44.860Z,87.14
2023-12-03T21:01:13.540Z,87.39
2023-12-03T21:03:42.432Z,87.76
2023-12-03T21:06:11.703Z,87.58
2023-12-03T21:08:39.924Z,87.78
2023-12-03T21:11:08.186Z,88.06
2023-12-03T21:13:38.113Z,87.83
2023-12-03T21:16:07.457Z,87.60
2023-12-03T21:18:35.413Z,87.61
2023-12-03T21:21:03.633Z,87.83
2023-12-03T21:23:31.990Z,87.68
2023-12-03T21:25:59.922Z,87.41
2023-12-03T21:28:27.817Z,87.28
2023-12-03T21:30:56.427Z,87.88
2023-12-03T21:33:25.026Z,87.88
2023-12-03T21:35:58.025Z,88.00
2023-12-03T21:38:28.124Z,88.45
2023-12-03T21:40:57.058Z,88.00
2023-12-03T21:43:26.108Z,87.83
2023-12-03T21:45:56.370Z,88.48
2023-12-03T21:48:25.464Z,88.21
2023-12-03T21:51:39.897Z,88.09
2023-12-03T21:54:21.615Z,87.98
2023-12-03T21:56:50.027Z,88.56
2023-12-03T21:59:18.660Z,88.55
2023-12-03T22:01:46.656Z,88.36
2023-12-03T22:04:15.815Z,88.40
2023-12-03T22:06:43.769Z,88.69
2023-12-03T22:09:16.454Z,88.59
2023-12-03T22:11:45.679Z,88.68
2023-12-03T22:14:17.522Z,88.61
2023-12-03T22:16:45.467Z,88.36
2023-12-03T22:19:14.092Z,88.46
2023-12-03T22:21:42.227Z,88.44
2023-12-03T22:24:10.970Z,88.69
2023-12-03T22:26:39.417Z,88.98
2023-12-03T22:29:07.588Z,89.35
2023-12-03T22:31:38.832Z,89.57
2023-12-03T22:34:07.703Z,89.49
2023-12-03T22:36:35.853Z,89.53
2023-12-03T22:39:04.004Z,89.65
2023-12-03T22:41:32.105Z,89.55
2023-12-03T22:44:00.693Z,89.47
2023-12-03T22:46:29.526Z,90.04
2023-12-03T22:48:58.959Z,89.94
2023-12-03T22:51:27.933Z,89.78
2023-12-03T22:53:56.270Z,90.01
2023-12-03T22:56:24.849Z,90.42
2023-12-03T22:58:53.658Z,90.74
2023-12-03T23:01:21.561Z,90.80
2023-12-03T23:03:49.471Z,91.37
2023-12-03T23:06:17.461Z,91.17
2023-12-03T23:08:45.334Z,91.19
2023-12-03T23:11:13.398Z,91.47
2023-12-03T23:13:41.351Z,91.61
2023-12-03T23:16:10.973Z,91.93
2023-12-03T23:18:39.091Z,92.09
2023-12-03T23:21:07.279Z,92.11
2023-12-03T23:23:35.163Z,92.01
2023-12-03T23:26:03.032Z,92.30
2023-12-03T23:28:31.044Z,92.44
2023-12-03T23:30:59.785Z,92.71
2023-12-03T23:33:30.505Z,92.99
2023-12-03T23:35:58.514Z,92.69
2023-12-03T23:38:26.594Z,92.83
2023-12-03T23:40:54.522Z,93.12
2023-12-03T23:43:22.527Z,93.29
2023-12-03T23:45:50.495Z,92.98
2023-12-03T23:48:18.694Z,92.94
2023-12-03T23:50:46.654Z,92.97
2023-12-03T23:53:14.789Z,93.14
2023-12-03T23:55:45.351Z,93.30
2023-12-03T23:58:50.615Z,93.37
